sensor_id;sensor_type;location;lat;lon;timestamp;P1;durP1;ratioP1;P2;durP2;ratioP2
13075;SDS011;6604;52.484;13.330;2023-05-07T07:47:46;5.37;;;4.30;;
13075;SDS011;6604;52.484;13.330;2023-05-07T07:50:12;5.10;;;4.00;;
13075;SDS011;6604;52.484;13.330;2023-05-07T07:52:39;5.57;;;4.23;;
13075;SDS011;6604;52.484;13.330;2023-05-07T07:55:06;6.40;;;4.10;;
13075;SDS011;6604;52.484;13.330;2023-05-07T07:57:33;4.77;;;3.97;;
13075;SDS011;6604;52.484;13.330;2023-05-07T07:59:59;5.47;;;4.40;;
13075;SDS011;6604;52.484;13.330;2023-05-07T08:02:27;4.77;;;4.10;;
13075;SDS011;6604;52.484;13.330;2023-05-07T08:04:55;3.93;;;3.40;;
13075;SDS011;6604;52.484;13.330;2023-05-07T08:07:21;3.80;;;3.43;;
13075;SDS011;6604;52.484;13.330;2023-05-07T08:09:48;4.50;;;4.10;;
13075;SDS011;6604;52.484;13.330;2023-05-07T08:12:15;4.27;;;3.87;;
13075;SDS011;6604;52.484;13.330;2023-05-07T08:14:41;4.00;;;3.60;;
13075;SDS011;6604;52.484;13.330;2023-05-07T08:17:08;3.73;;;3.20;;
13075;SDS011;6604;52.484;13.330;2023-05-07T08:19:35;4.67;;;4.10;;
13075;SDS011;6604;52.484;13.330;2023-05-07T08:22:03;7.00;;;3.83;;
13075;SDS011;6604;52.484;13.330;2023-05-07T08:24:30;5.80;;;4.27;;
13075;SDS011;6604;52.484;13.330;2023-05-07T08:26:57;4.10;;;3.70;;
13075;SDS011;6604;52.484;13.330;2023-05-07T08:29:23;5.00;;;3.90;;
13075;SDS011;6604;52.484;13.330;2023-05-07T08:31:50;4.37;;;3.70;;
13075;SDS011;6604;52.484;13.330;2023-05-07T08:34:17;5.43;;;3.70;;
13075;SDS011;6604;52.484;13.330;2023-05-07T08:36:43;5.47;;;3.63;;
13075;SDS011;6604;52.484;13.330;2023-05-07T08:39:13;3.40;;;3.10;;
13075;SDS011;6604;52.484;13.330;2023-05-07T08:41:40;3.77;;;3.27;;
13075;SDS011;6604;52.484;13.330;2023-05-07T08:44:07;3.90;;;3.43;;
13075;SDS011;6604;52.484;13.330;2023-05-07T08:46:37;3.57;;;3.27;;
13075;SDS011;6604;52.484;13.330;2023-05-07T08:49:04;3.60;;;3.13;;
13075;SDS011;6604;52.484;13.330;2023-05-07T08:51:31;3.47;;;2.97;;
13075;SDS011;6604;52.484;13.330;2023-05-07T08:53:57;4.30;;;3.57;;
13075;SDS011;6604;52.484;13.330;2023-05-07T08:56:26;4.53;;;3.40;;
13075;SDS011;6604;52.484;13.330;2023-05-07T08:58:53;4.50;;;3.03;;
13075;SDS011;6604;52.484;13.330;2023-05-07T09:01:21;3.23;;;2.83;;
13075;SDS011;6604;52.484;13.330;2023-05-07T09:03:49;4.73;;;3.33;;
13075;SDS011;6604;52.484;13.330;2023-05-07T09:06:16;3.20;;;2.90;;
13075;SDS011;6604;52.484;13.330;2023-05-07T09:08:44;4.77;;;3.37;;
13075;SDS011;6604;52.484;13.330;2023-05-07T09:11:15;3.70;;;3.03;;
13075;SDS011;6604;52.484;13.330;2023-05-07T09:13:43;3.20;;;2.90;;
13075;SDS011;6604;52.484;13.330;2023-05-07T09:16:10;3.00;;;2.80;;
13075;SDS011;6604;52.484;13.330;2023-05-07T09:18:40;3.63;;;2.90;;
13075;SDS011;6604;52.484;13.330;2023-05-07T09:21:09;2.80;;;2.60;;
13075;SDS011;6604;52.484;13.330;2023-05-07T09:23:35;4.07;;;3.00;;
13075;SDS011;6604;52.484;13.330;2023-05-07T09:26:02;3.63;;;2.70;;
13075;SDS011;6604;52.484;13.330;2023-05-07T09:28:29;3.17;;;2.77;;
13075;SDS011;6604;52.484;13.330;2023-05-07T09:30:57;4.77;;;2.90;;
13075;SDS011;6604;52.484;13.330;2023-05-07T09:33:26;3.40;;;2.80;;
13075;SDS011;6604;52.484;13.330;2023-05-07T09:35:53;3.07;;;2.80;;
13075;SDS011;6604;52.484;13.330;2023-05-07T09:38:21;3.33;;;2.67;;
13075;SDS011;6604;52.484;13.330;2023-05-07T09:40:54;3.50;;;2.87;;
13075;SDS011;6604;52.484;13.330;2023-05-07T09:43:27;3.40;;;3.10;;
13075;SDS011;6604;52.484;13.330;2023-05-07T09:45:59;3.20;;;2.80;;
13075;SDS011;6604;52.484;13.330;2023-05-07T09:48:26;4.10;;;3.03;;
13075;SDS011;6604;52.484;13.330;2023-05-07T09:50:55;3.63;;;2.97;;
13075;SDS011;6604;52.484;13.330;2023-05-07T09:53:23;3.90;;;3.00;;
13075;SDS011;6604;52.484;13.330;2023-05-07T09:55:50;4.70;;;2.87;;
13075;SDS011;6604;52.484;13.330;2023-05-07T09:58:17;3.93;;;2.90;;
13075;SDS011;6604;52.484;13.330;2023-05-07T10:00:44;3.30;;;3.00;;
13075;SDS011;6604;52.484;13.330;2023-05-07T10:03:13;4.23;;;2.80;;
13075;SDS011;6604;52.484;13.330;2023-05-07T10:05:40;4.43;;;2.90;;
13075;SDS011;6604;52.484;13.330;2023-05-07T10:08:09;3.43;;;2.60;;
13075;SDS011;6604;52.484;13.330;2023-05-07T10:10:36;2.80;;;2.60;;
13075;SDS011;6604;52.484;13.330;2023-05-07T10:13:02;3.07;;;2.57;;
13075;SDS011;6604;52.484;13.330;2023-05-07T10:15:35;3.67;;;2.60;;
13075;SDS011;6604;52.484;13.330;2023-05-07T10:18:02;2.90;;;2.50;;
13075;SDS011;6604;52.484;13.330;2023-05-07T10:20:31;4.20;;;2.10;;
13075;SDS011;6604;52.484;13.330;2023-05-07T10:22:59;2.83;;;2.40;;
13075;SDS011;6604;52.484;13.330;2023-05-07T10:25:28;3.00;;;2.10;;
13075;SDS011;6604;52.484;13.330;2023-05-07T10:27:57;2.30;;;2.10;;
13075;SDS011;6604;52.484;13.330;2023-05-07T10:30:26;2.33;;;2.13;;
13075;SDS011;6604;52.484;13.330;2023-05-07T10:32:56;2.13;;;1.93;;
13075;SDS011;6604;52.484;13.330;2023-05-07T10:35:32;2.83;;;2.10;;
13075;SDS011;6604;52.484;13.330;2023-05-07T10:38:02;3.27;;;2.00;;
13075;SDS011;6604;52.484;13.330;2023-05-07T10:40:29;4.97;;;1.90;;
13075;SDS011;6604;52.484;13.330;2023-05-07T10:42:56;3.63;;;2.07;;
13075;SDS011;6604;52.484;13.330;2023-05-07T10:45:24;3.13;;;2.00;;
13075;SDS011;6604;52.484;13.330;2023-05-07T10:48:05;2.37;;;1.93;;
13075;SDS011;6604;52.484;13.330;2023-05-07T10:50:33;1.80;;;1.70;;
13075;SDS011;6604;52.484;13.330;2023-05-07T10:53:20;3.73;;;2.00;;
13075;SDS011;6604;52.484;13.330;2023-05-07T10:55:49;3.53;;;1.90;;
13075;SDS011;6604;52.484;13.330;2023-05-07T10:58:22;3.53;;;1.80;;
13075;SDS011;6604;52.484;13.330;2023-05-07T11:00:49;2.17;;;1.90;;
13075;SDS011;6604;52.484;13.330;2023-05-07T11:03:16;1.70;;;1.60;;
13075;SDS011;6604;52.484;13.330;2023-05-07T11:05:44;1.90;;;1.70;;
13075;SDS011;6604;52.484;13.330;2023-05-07T11:08:11;2.27;;;1.90;;
13075;SDS011;6604;52.484;13.330;2023-05-07T11:10:47;3.53;;;2.07;;
13075;SDS011;6604;52.484;13.330;2023-05-07T11:13:14;1.97;;;1.80;;
13075;SDS011;6604;52.484;13.330;2023-05-07T11:15:41;2.13;;;1.93;;
13075;SDS011;6604;52.484;13.330;2023-05-07T11:18:08;1.90;;;1.70;;
13075;SDS011;6604;52.484;13.330;2023-05-07T11:26:08;2.70;;;2.27;;
13075;SDS011;6604;52.484;13.330;2023-05-07T11:28:36;2.20;;;2.00;;
13075;SDS011;6604;52.484;13.330;2023-05-07T11:31:03;3.60;;;2.00;;
13075;SDS011;6604;52.484;13.330;2023-05-07T11:33:29;2.97;;;2.00;;
13075;SDS011;6604;52.484;13.330;2023-05-07T11:35:56;3.00;;;1.90;;
13075;SDS011;6604;52.484;13.330;2023-05-07T11:38:22;2.13;;;1.90;;
13075;SDS011;6604;52.484;13.330;2023-05-07T11:40:49;2.33;;;1.80;;
13075;SDS011;6604;52.484;13.330;2023-05-07T11:43:18;2.03;;;1.83;;
13075;SDS011;6604;52.484;13.330;2023-05-07T11:45:44;3.20;;;1.83;;
13075;SDS011;6604;52.484;13.330;2023-05-07T11:48:11;3.53;;;1.80;;
13075;SDS011;6604;52.484;13.330;2023-05-07T11:50:48;2.40;;;1.83;;
13075;SDS011;6604;52.484;13.330;2023-05-07T11:53:16;1.97;;;1.83;;
13075;SDS011;6604;52.484;13.330;2023-05-07T11:55:43;1.90;;;1.80;;
13075;SDS011;6604;52.484;13.330;2023-05-07T11:58:11;2.03;;;1.83;;
13075;SDS011;6604;52.484;13.330;2023-05-07T12:00:39;2.53;;;1.80;;
13075;SDS011;6604;52.484;13.330;2023-05-07T12:03:14;2.20;;;2.00;;
13075;SDS011;6604;52.484;13.330;2023-05-07T12:05:40;3.63;;;2.10;;
13075;SDS011;6604;52.484;13.330;2023-05-07T12:08:07;2.00;;;1.80;;
13075;SDS011;6604;52.484;13.330;2023-05-07T12:10:34;1.87;;;1.63;;
13075;SDS011;6604;52.484;13.330;2023-05-07T12:13:00;1.70;;;1.60;;
13075;SDS011;6604;52.484;13.330;2023-05-07T12:15:27;1.80;;;1.70;;
13075;SDS011;6604;52.484;13.330;2023-05-07T12:17:55;2.30;;;1.70;;
13075;SDS011;6604;52.484;13.330;2023-05-07T12:20:21;1.80;;;1.70;;
13075;SDS011;6604;52.484;13.330;2023-05-07T12:22:48;3.97;;;2.87;;
13075;SDS011;6604;52.484;13.330;2023-05-07T12:25:18;2.37;;;1.83;;
13075;SDS011;6604;52.484;13.330;2023-05-07T12:27:45;3.07;;;1.70;;
13075;SDS011;6604;52.484;13.330;2023-05-07T12:30:17;1.60;;;1.50;;
13075;SDS011;6604;52.484;13.330;2023-05-07T12:32:44;1.90;;;1.70;;
13075;SDS011;6604;52.484;13.330;2023-05-07T12:35:12;1.73;;;1.60;;
13075;SDS011;6604;52.484;13.330;2023-05-07T12:37:39;2.00;;;1.87;;
13075;SDS011;6604;52.484;13.330;2023-05-07T12:40:08;1.67;;;1.57;;
13075;SDS011;6604;52.484;13.330;2023-05-07T12:42:35;1.87;;;1.70;;
13075;SDS011;6604;52.484;13.330;2023-05-07T12:45:07;1.80;;;1.70;;
13075;SDS011;6604;52.484;13.330;2023-05-07T12:47:33;2.17;;;1.50;;
13075;SDS011;6604;52.484;13.330;2023-05-07T12:50:00;1.80;;;1.70;;
13075;SDS011;6604;52.484;13.330;2023-05-07T12:52:28;2.10;;;1.73;;
13075;SDS011;6604;52.484;13.330;2023-05-07T12:54:55;2.80;;;1.87;;
13075;SDS011;6604;52.484;13.330;2023-05-07T12:57:22;3.23;;;1.80;;
13075;SDS011;6604;52.484;13.330;2023-05-07T12:59:48;2.03;;;1.63;;
13075;SDS011;6604;52.484;13.330;2023-05-07T13:02:15;1.77;;;1.63;;
13075;SDS011;6604;52.484;13.330;2023-05-07T13:04:41;1.60;;;1.40;;
13075;SDS011;6604;52.484;13.330;2023-05-07T13:07:08;1.50;;;1.40;;
13075;SDS011;6604;52.484;13.330;2023-05-07T13:09:36;1.90;;;1.70;;
13075;SDS011;6604;52.484;13.330;2023-05-07T13:12:03;1.87;;;1.70;;
13075;SDS011;6604;52.484;13.330;2023-05-07T13:14:31;1.70;;;1.60;;
13075;SDS011;6604;52.484;13.330;2023-05-07T13:16:57;1.53;;;1.43;;
13075;SDS011;6604;52.484;13.330;2023-05-07T13:19:24;1.60;;;1.50;;
13075;SDS011;6604;52.484;13.330;2023-05-07T13:21:50;3.57;;;1.93;;
13075;SDS011;6604;52.484;13.330;2023-05-07T13:24:17;1.53;;;1.43;;
13075;SDS011;6604;52.484;13.330;2023-05-07T13:26:45;2.33;;;1.50;;
13075;SDS011;6604;52.484;13.330;2023-05-07T13:29:11;2.10;;;1.40;;
13075;SDS011;6604;52.484;13.330;2023-05-07T13:31:38;2.83;;;1.70;;
13075;SDS011;6604;52.484;13.330;2023-05-07T13:34:07;2.53;;;1.70;;
13075;SDS011;6604;52.484;13.330;2023-05-07T13:36:34;1.50;;;1.40;;
13075;SDS011;6604;52.484;13.330;2023-05-07T13:39:02;1.57;;;1.43;;
13075;SDS011;6604;52.484;13.330;2023-05-07T13:41:29;1.30;;;1.20;;
13075;SDS011;6604;52.484;13.330;2023-05-07T13:43:56;1.50;;;1.40;;
13075;SDS011;6604;52.484;13.330;2023-05-07T13:46:23;2.00;;;1.83;;
13075;SDS011;6604;52.484;13.330;2023-05-07T13:48:50;1.90;;;1.80;;
13075;SDS011;6604;52.484;13.330;2023-05-07T13:51:16;1.70;;;1.60;;
13075;SDS011;6604;52.484;13.330;2023-05-07T13:53:43;1.70;;;1.50;;
13075;SDS011;6604;52.484;13.330;2023-05-07T13:56:09;3.10;;;1.57;;
13075;SDS011;6604;52.484;13.330;2023-05-07T13:58:36;1.43;;;1.33;;
13075;SDS011;6604;52.484;13.330;2023-05-07T14:01:04;1.50;;;1.40;;
13075;SDS011;6604;52.484;13.330;2023-05-07T14:03:30;2.40;;;1.60;;
13075;SDS011;6604;52.484;13.330;2023-05-07T14:05:58;1.73;;;1.63;;
13075;SDS011;6604;52.484;13.330;2023-05-07T14:08:26;2.00;;;1.50;;
13075;SDS011;6604;52.484;13.330;2023-05-07T14:10:53;2.17;;;1.60;;
13075;SDS011;6604;52.484;13.330;2023-05-07T14:13:19;3.80;;;1.73;;
13075;SDS011;6604;52.484;13.330;2023-05-07T14:15:45;3.47;;;1.50;;
13075;SDS011;6604;52.484;13.330;2023-05-07T14:18:15;3.90;;;2.07;;
13075;SDS011;6604;52.484;13.330;2023-05-07T14:20:42;2.17;;;1.80;;
13075;SDS011;6604;52.484;13.330;2023-05-07T14:23:11;2.03;;;1.53;;
13075;SDS011;6604;52.484;13.330;2023-05-07T14:25:37;3.33;;;1.40;;
13075;SDS011;6604;52.484;13.330;2023-05-07T14:28:04;1.93;;;1.33;;
13075;SDS011;6604;52.484;13.330;2023-05-07T14:30:31;1.50;;;1.40;;
13075;SDS011;6604;52.484;13.330;2023-05-07T14:32:57;1.83;;;1.50;;
13075;SDS011;6604;52.484;13.330;2023-05-07T14:35:25;2.27;;;1.50;;
13075;SDS011;6604;52.484;13.330;2023-05-07T14:37:51;4.20;;;1.50;;
13075;SDS011;6604;52.484;13.330;2023-05-07T14:40:18;1.60;;;1.50;;
13075;SDS011;6604;52.484;13.330;2023-05-07T14:42:44;1.43;;;1.27;;
13075;SDS011;6604;52.484;13.330;2023-05-07T14:45:11;1.60;;;1.47;;
13075;SDS011;6604;52.484;13.330;2023-05-07T14:47:37;1.50;;;1.40;;
13075;SDS011;6604;52.484;13.330;2023-05-07T14:50:04;1.50;;;1.40;;
13075;SDS011;6604;52.484;13.330;2023-05-07T14:52:32;1.50;;;1.40;;
13075;SDS011;6604;52.484;13.330;2023-05-07T14:54:59;1.60;;;1.50;;
13075;SDS011;6604;52.484;13.330;2023-05-07T14:57:25;1.53;;;1.40;;
13075;SDS011;6604;52.484;13.330;2023-05-07T14:59:52;1.57;;;1.47;;
13075;SDS011;6604;52.484;13.330;2023-05-07T15:02:18;1.60;;;1.50;;
13075;SDS011;6604;52.484;13.330;2023-05-07T15:04:45;2.60;;;1.43;;
13075;SDS011;6604;52.484;13.330;2023-05-07T15:07:11;3.07;;;1.60;;
13075;SDS011;6604;52.484;13.330;2023-05-07T15:09:41;6.27;;;4.07;;
13075;SDS011;6604;52.484;13.330;2023-05-07T15:12:08;2.03;;;1.50;;
13075;SDS011;6604;52.484;13.330;2023-05-07T15:14:34;3.40;;;1.60;;
13075;SDS011;6604;52.484;13.330;2023-05-07T15:17:01;1.63;;;1.50;;
13075;SDS011;6604;52.484;13.330;2023-05-07T15:19:27;1.70;;;1.60;;
13075;SDS011;6604;52.484;13.330;2023-05-07T15:21:54;2.20;;;1.40;;
13075;SDS011;6604;52.484;13.330;2023-05-07T15:24:21;1.60;;;1.50;;
13075;SDS011;6604;52.484;13.330;2023-05-07T15:26:50;1.80;;;1.70;;
13075;SDS011;6604;52.484;13.330;2023-05-07T15:29:17;2.60;;;1.50;;
13075;SDS011;6604;52.484;13.330;2023-05-07T15:31:44;1.50;;;1.40;;
13075;SDS011;6604;52.484;13.330;2023-05-07T15:34:10;3.97;;;2.57;;
13075;SDS011;6604;52.484;13.330;2023-05-07T15:36:37;4.27;;;2.00;;
13075;SDS011;6604;52.484;13.330;2023-05-07T15:39:04;2.23;;;2.03;;
13075;SDS011;6604;52.484;13.330;2023-05-07T15:41:30;11.77;;;7.93;;
13075;SDS011;6604;52.484;13.330;2023-05-07T15:43:58;2.93;;;2.20;;
13075;SDS011;6604;52.484;13.330;2023-05-07T15:46:25;1.70;;;1.60;;
13075;SDS011;6604;52.484;13.330;2023-05-07T15:48:52;1.60;;;1.50;;
13075;SDS011;6604;52.484;13.330;2023-05-07T15:51:18;2.50;;;1.43;;
13075;SDS011;6604;52.484;13.330;2023-05-07T15:53:46;1.80;;;1.70;;
13075;SDS011;6604;52.484;13.330;2023-05-07T15:56:13;1.87;;;1.57;;
13075;SDS011;6604;52.484;13.330;2023-05-07T15:58:40;2.10;;;1.47;;
13075;SDS011;6604;52.484;13.330;2023-05-07T16:01:07;2.83;;;1.80;;
13075;SDS011;6604;52.484;13.330;2023-05-07T16:03:34;3.03;;;1.60;;
13075;SDS011;6604;52.484;13.330;2023-05-07T16:06:01;1.40;;;1.30;;
13075;SDS011;6604;52.484;13.330;2023-05-07T16:08:28;1.87;;;1.50;;
13075;SDS011;6604;52.484;13.330;2023-05-07T16:10:54;1.90;;;1.60;;
13075;SDS011;6604;52.484;13.330;2023-05-07T16:13:20;4.00;;;1.70;;
13075;SDS011;6604;52.484;13.330;2023-05-07T16:15:48;3.50;;;1.80;;
13075;SDS011;6604;52.484;13.330;2023-05-07T16:18:16;2.13;;;1.60;;
13075;SDS011;6604;52.484;13.330;2023-05-07T16:20:43;2.00;;;1.80;;
13075;SDS011;6604;52.484;13.330;2023-05-07T16:23:09;2.40;;;1.80;;
13075;SDS011;6604;52.484;13.330;2023-05-07T16:25:37;1.70;;;1.60;;
13075;SDS011;6604;52.484;13.330;2023-05-07T16:28:03;9.30;;;6.07;;
13075;SDS011;6604;52.484;13.330;2023-05-07T16:30:30;6.67;;;3.93;;
13075;SDS011;6604;52.484;13.330;2023-05-07T16:32:57;2.10;;;1.90;;
13075;SDS011;6604;52.484;13.330;2023-05-07T16:35:24;1.90;;;1.70;;
13075;SDS011;6604;52.484;13.330;2023-05-07T16:37:51;1.83;;;1.73;;
13075;SDS011;6604;52.484;13.330;2023-05-07T16:40:18;3.23;;;2.20;;
13075;SDS011;6604;52.484;13.330;2023-05-07T16:42:45;3.83;;;1.90;;
13075;SDS011;6604;52.484;13.330;2023-05-07T16:45:11;2.57;;;1.77;;
13075;SDS011;6604;52.484;13.330;2023-05-07T16:47:38;2.00;;;1.90;;
13075;SDS011;6604;52.484;13.330;2023-05-07T16:50:05;1.87;;;1.77;;
13075;SDS011;6604;52.484;13.330;2023-05-07T16:52:32;2.10;;;1.83;;
13075;SDS011;6604;52.484;13.330;2023-05-07T16:54:59;1.97;;;1.80;;
13075;SDS011;6604;52.484;13.330;2023-05-07T16:57:26;2.40;;;1.60;;
13075;SDS011;6604;52.484;13.330;2023-05-07T16:59:54;1.83;;;1.57;;
13075;SDS011;6604;52.484;13.330;2023-05-07T17:02:21;1.40;;;1.30;;
13075;SDS011;6604;52.484;13.330;2023-05-07T17:04:47;1.70;;;1.60;;
13075;SDS011;6604;52.484;13.330;2023-05-07T17:07:14;1.90;;;1.60;;
13075;SDS011;6604;52.484;13.330;2023-05-07T17:09:42;3.57;;;1.60;;
13075;SDS011;6604;52.484;13.330;2023-05-07T17:12:08;1.83;;;1.30;;
13075;SDS011;6604;52.484;13.330;2023-05-07T17:14:35;1.83;;;1.73;;
13075;SDS011;6604;52.484;13.330;2023-05-07T17:17:01;1.80;;;1.60;;
13075;SDS011;6604;52.484;13.330;2023-05-07T17:19:28;1.60;;;1.50;;
13075;SDS011;6604;52.484;13.330;2023-05-07T17:21:54;1.67;;;1.30;;
13075;SDS011;6604;52.484;13.330;2023-05-07T17:24:21;1.70;;;1.60;;
13075;SDS011;6604;52.484;13.330;2023-05-07T17:26:49;2.90;;;1.40;;
13075;SDS011;6604;52.484;13.330;2023-05-07T17:29:16;1.40;;;1.30;;
13075;SDS011;6604;52.484;13.330;2023-05-07T17:31:43;1.50;;;1.40;;
13075;SDS011;6604;52.484;13.330;2023-05-07T17:34:10;2.73;;;1.73;;
13075;SDS011;6604;52.484;13.330;2023-05-07T17:36:36;2.40;;;1.57;;
13075;SDS011;6604;52.484;13.330;2023-05-07T17:39:03;2.00;;;1.80;;
13075;SDS011;6604;52.484;13.330;2023-05-07T17:41:30;1.93;;;1.40;;
13075;SDS011;6604;52.484;13.330;2023-05-07T17:43:58;2.10;;;1.40;;
13075;SDS011;6604;52.484;13.330;2023-05-07T17:46:24;2.07;;;1.60;;
13075;SDS011;6604;52.484;13.330;2023-05-07T17:48:51;1.67;;;1.57;;
13075;SDS011;6604;52.484;13.330;2023-05-07T17:51:17;1.60;;;1.50;;
13075;SDS011;6604;52.484;13.330;2023-05-07T17:53:44;3.10;;;1.70;;
13075;SDS011;6604;52.484;13.330;2023-05-07T17:56:10;4.13;;;1.90;;
13075;SDS011;6604;52.484;13.330;2023-05-07T17:58:37;2.53;;;1.90;;
13075;SDS011;6604;52.484;13.330;2023-05-07T18:01:07;1.60;;;1.50;;
13075;SDS011;6604;52.484;13.330;2023-05-07T18:03:33;2.13;;;1.90;;
13075;SDS011;6604;52.484;13.330;2023-05-07T18:06:01;4.93;;;2.10;;
13075;SDS011;6604;52.484;13.330;2023-05-07T18:08:28;2.23;;;1.70;;
13075;SDS011;6604;52.484;13.330;2023-05-07T18:10:54;1.90;;;1.60;;
13075;SDS011;6604;52.484;13.330;2023-05-07T18:13:21;1.70;;;1.30;;
13075;SDS011;6604;52.484;13.330;2023-05-07T18:15:47;5.27;;;2.00;;
13075;SDS011;6604;52.484;13.330;2023-05-07T18:18:15;1.60;;;1.50;;
13075;SDS011;6604;52.484;13.330;2023-05-07T18:20:47;1.33;;;1.23;;
13075;SDS011;6604;52.484;13.330;2023-05-07T18:23:13;3.10;;;2.80;;
13075;SDS011;6604;52.484;13.330;2023-05-07T18:25:40;1.70;;;1.60;;
13075;SDS011;6604;52.484;13.330;2023-05-07T18:28:07;1.70;;;1.60;;
13075;SDS011;6604;52.484;13.330;2023-05-07T18:30:33;1.83;;;1.70;;
13075;SDS011;6604;52.484;13.330;2023-05-07T18:33:00;1.93;;;1.80;;
13075;SDS011;6604;52.484;13.330;2023-05-07T18:35:28;1.73;;;1.40;;
13075;SDS011;6604;52.484;13.330;2023-05-07T18:37:54;2.37;;;1.63;;
13075;SDS011;6604;52.484;13.330;2023-05-07T18:40:21;1.90;;;1.73;;
13075;SDS011;6604;52.484;13.330;2023-05-07T18:42:47;1.60;;;1.50;;
13075;SDS011;6604;52.484;13.330;2023-05-07T18:45:14;2.13;;;1.60;;
13075;SDS011;6604;52.484;13.330;2023-05-07T18:47:40;9.87;;;6.10;;
13075;SDS011;6604;52.484;13.330;2023-05-07T18:50:07;2.23;;;2.00;;
13075;SDS011;6604;52.484;13.330;2023-05-07T18:52:35;1.60;;;1.50;;
13075;SDS011;6604;52.484;13.330;2023-05-07T18:55:02;2.53;;;1.83;;
13075;SDS011;6604;52.484;13.330;2023-05-07T18:57:28;2.70;;;1.80;;
13075;SDS011;6604;52.484;13.330;2023-05-07T18:59:55;3.77;;;1.63;;
13075;SDS011;6604;52.484;13.330;2023-05-07T19:02:21;1.67;;;1.50;;
13075;SDS011;6604;52.484;13.330;2023-05-07T19:04:48;2.03;;;1.83;;
13075;SDS011;6604;52.484;13.330;2023-05-07T19:07:15;2.20;;;1.60;;
13075;SDS011;6604;52.484;13.330;2023-05-07T19:09:43;1.97;;;1.87;;
13075;SDS011;6604;52.484;13.330;2023-05-07T19:12:10;1.73;;;1.63;;
13075;SDS011;6604;52.484;13.330;2023-05-07T19:14:37;2.10;;;2.00;;
13075;SDS011;6604;52.484;13.330;2023-05-07T19:17:05;1.80;;;1.70;;
13075;SDS011;6604;52.484;13.330;2023-05-07T19:19:32;1.90;;;1.80;;
13075;SDS011;6604;52.484;13.330;2023-05-07T19:21:58;2.30;;;2.10;;
13075;SDS011;6604;52.484;13.330;2023-05-07T19:24:25;2.07;;;1.90;;
13075;SDS011;6604;52.484;13.330;2023-05-07T19:26:55;3.10;;;1.90;;
13075;SDS011;6604;52.484;13.330;2023-05-07T19:29:22;2.40;;;2.10;;
13075;SDS011;6604;52.484;13.330;2023-05-07T19:31:49;2.43;;;1.93;;
13075;SDS011;6604;52.484;13.330;2023-05-07T19:34:15;3.50;;;1.90;;
13075;SDS011;6604;52.484;13.330;2023-05-07T19:36:42;3.13;;;2.20;;
13075;SDS011;6604;52.484;13.330;2023-05-07T19:39:08;4.00;;;2.20;;
13075;SDS011;6604;52.484;13.330;2023-05-07T19:41:35;2.70;;;2.50;;
13075;SDS011;6604;52.484;13.330;2023-05-07T19:44:04;2.80;;;2.10;;
13075;SDS011;6604;52.484;13.330;2023-05-07T19:46:30;2.50;;;2.10;;
13075;SDS011;6604;52.484;13.330;2023-05-07T19:48:57;2.60;;;2.23;;
13075;SDS011;6604;52.484;13.330;2023-05-07T19:51:23;2.80;;;2.10;;
13075;SDS011;6604;52.484;13.330;2023-05-07T19:53:50;2.47;;;2.27;;
13075;SDS011;6604;52.484;13.330;2023-05-07T19:56:16;2.17;;;2.00;;
13075;SDS011;6604;52.484;13.330;2023-05-07T19:58:43;2.30;;;2.10;;
13075;SDS011;6604;52.484;13.330;2023-05-07T20:01:11;2.20;;;2.10;;
13075;SDS011;6604;52.484;13.330;2023-05-07T20:03:37;2.37;;;2.17;;
13075;SDS011;6604;52.484;13.330;2023-05-07T20:06:04;2.73;;;1.87;;
13075;SDS011;6604;52.484;13.330;2023-05-07T20:08:30;3.83;;;2.10;;
13075;SDS011;6604;52.484;13.330;2023-05-07T20:10:57;4.40;;;2.40;;
13075;SDS011;6604;52.484;13.330;2023-05-07T20:13:24;2.47;;;2.13;;
13075;SDS011;6604;52.484;13.330;2023-05-07T20:15:55;2.40;;;2.20;;
13075;SDS011;6604;52.484;13.330;2023-05-07T20:18:23;2.37;;;2.17;;
13075;SDS011;6604;52.484;13.330;2023-05-07T20:20:50;2.70;;;2.20;;
13075;SDS011;6604;52.484;13.330;2023-05-07T20:23:16;2.03;;;1.90;;
13075;SDS011;6604;52.484;13.330;2023-05-07T20:25:42;3.17;;;2.43;;
13075;SDS011;6604;52.484;13.330;2023-05-07T20:28:10;2.53;;;2.33;;
13075;SDS011;6604;52.484;13.330;2023-05-07T20:30:36;2.63;;;2.43;;
13075;SDS011;6604;52.484;13.330;2023-05-07T20:33:03;2.97;;;2.43;;
13075;SDS011;6604;52.484;13.330;2023-05-07T20:35:31;6.17;;;2.43;;
13075;SDS011;6604;52.484;13.330;2023-05-07T20:37:57;2.60;;;2.40;;
13075;SDS011;6604;52.484;13.330;2023-05-07T20:40:24;4.20;;;2.57;;
13075;SDS011;6604;52.484;13.330;2023-05-07T20:42:52;2.60;;;2.40;;
13075;SDS011;6604;52.484;13.330;2023-05-07T20:45:18;2.50;;;2.30;;
13075;SDS011;6604;52.484;13.330;2023-05-07T20:47:45;3.60;;;2.30;;
13075;SDS011;6604;52.484;13.330;2023-05-07T20:50:12;3.00;;;2.37;;
13075;SDS011;6604;52.484;13.330;2023-05-07T20:52:40;2.53;;;2.33;;
13075;SDS011;6604;52.484;13.330;2023-05-07T20:55:07;2.77;;;2.57;;
13075;SDS011;6604;52.484;13.330;2023-05-07T20:57:33;3.93;;;2.50;;
13075;SDS011;6604;52.484;13.330;2023-05-07T21:00:00;2.60;;;2.40;;
13075;SDS011;6604;52.484;13.330;2023-05-07T21:02:27;3.07;;;2.80;;
13075;SDS011;6604;52.484;13.330;2023-05-07T21:04:54;3.00;;;2.80;;
13075;SDS011;6604;52.484;13.330;2023-05-07T21:07:21;4.00;;;2.90;;
13075;SDS011;6604;52.484;13.330;2023-05-07T21:09:49;3.47;;;2.53;;
13075;SDS011;6604;52.484;13.330;2023-05-07T21:12:16;3.40;;;3.03;;
13075;SDS011;6604;52.484;13.330;2023-05-07T21:14:42;4.23;;;2.80;;
13075;SDS011;6604;52.484;13.330;2023-05-07T21:17:09;3.33;;;2.60;;
13075;SDS011;6604;52.484;13.330;2023-05-07T21:19:35;3.30;;;2.87;;
13075;SDS011;6604;52.484;13.330;2023-05-07T21:22:02;3.77;;;3.00;;
13075;SDS011;6604;52.484;13.330;2023-05-07T21:24:28;3.40;;;2.97;;
13075;SDS011;6604;52.484;13.330;2023-05-07T21:26:57;3.23;;;2.90;;
13075;SDS011;6604;52.484;13.330;2023-05-07T21:29:24;3.03;;;2.80;;
